Time;durP1;ratioP1;P1;durP2;ratioP2;P2;SDS_P1;SDS_P2;PMS_P1;PMS_P2;Temp;Humidity;BMP_temperature;BMP_pressure;BME280_temperature;BME280_humidity;BME280_pressure;Samples;Min_cycle;Max_cycle;Signal;HPM_P1;HPM_P2
2023/06/09 00:02:04;;;;;;;17.88;4.40;;;12.10;99.90;;;;;;5077730;28;20045;-89
2023/06/09 00:04:33;;;;;;;12.63;4.78;;;12.10;99.90;;;;;;5076540;28;20041;-88
2023/06/09 00:07:02;;;;;;;11.18;4.47;;;12.10;99.90;;;;;;5076436;28;20492;-87
2023/06/09 00:09:32;;;;;;;19.00;4.15;;;12.10;99.90;;;;;;5076922;28;20037;-89
2023/06/09 00:11:58;;;;;;;13.38;4.30;;;12.10;99.90;;;;;;5043491;28;20405;-89
2023/06/09 00:14:25;;;;;;;13.63;4.18;;;12.00;99.90;;;;;;5056223;28;20033;-89
2023/06/09 00:16:52;;;;;;;16.70;4.57;;;12.00;99.90;;;;;;5039876;28;20033;-88
2023/06/09 00:19:19;;;;;;;15.25;4.30;;;12.00;99.90;;;;;;5039527;28;20044;-88
2023/06/09 00:21:49;;;;;;;18.42;4.45;;;12.00;99.90;;;;;;5039716;28;20424;-89
2023/06/09 00:24:19;;;;;;;14.23;4.45;;;12.00;99.90;;;;;;5056169;28;20073;-88
2023/06/09 00:26:47;;;;;;;13.00;4.03;;;12.00;99.90;;;;;;5056640;28;20056;-89
2023/06/09 00:29:17;;;;;;;16.90;4.70;;;12.00;99.90;;;;;;5056580;28;20045;-88
2023/06/09 00:31:44;;;;;;;14.68;4.80;;;12.00;99.90;;;;;;5096518;28;20064;-89
2023/06/09 00:34:11;;;;;;;12.20;4.30;;;11.90;99.90;;;;;;5092741;28;20485;-89
2023/06/09 00:36:38;;;;;;;12.63;4.38;;;11.90;99.90;;;;;;5059636;28;20086;-89
2023/06/09 00:39:04;;;;;;;13.70;4.55;;;11.90;99.90;;;;;;5059357;28;20186;-87
2023/06/09 00:41:41;;;;;;;16.33;4.60;;;11.90;99.90;;;;;;5105136;28;20059;-88
2023/06/09 00:44:08;;;;;;;21.02;5.07;;;11.90;99.90;;;;;;5089212;28;20037;-88
2023/06/09 00:46:35;;;;;;;18.13;4.68;;;11.90;99.90;;;;;;5055575;28;20124;-89
2023/06/09 00:49:05;;;;;;;16.75;4.70;;;11.90;99.90;;;;;;5039600;28;20120;-89
2023/06/09 00:51:35;;;;;;;11.85;4.38;;;11.90;99.90;;;;;;5055632;28;20025;-88
2023/06/09 00:54:03;;;;;;;12.68;4.53;;;11.90;99.90;;;;;;5072431;28;20040;-88
2023/06/09 00:56:31;;;;;;;16.60;4.72;;;11.90;99.90;;;;;;5055373;28;20386;-88
2023/06/09 00:58:58;;;;;;;16.00;4.38;;;11.90;99.90;;;;;;5072158;28;20091;-88
2023/06/09 01:01:28;;;;;;;14.93;4.90;;;12.00;99.90;;;;;;5039119;28;20041;-88
2023/06/09 01:03:55;;;;;;;13.38;5.18;;;12.00;99.90;;;;;;5040560;28;20135;-89
2023/06/09 01:06:31;;;;;;;12.45;4.55;;;12.00;99.90;;;;;;5058621;28;20076;-88
2023/06/09 01:08:59;;;;;;;;;;;12.00;99.90;;;;;;5091901;28;20044;-89
2023/06/09 01:11:39;;;;;;;19.83;4.85;;;12.00;99.90;;;;;;5107733;28;19916;-88
2023/06/09 01:14:17;;;;;;;12.40;4.32;;;11.90;99.90;;;;;;5089961;28;20036;-88
2023/06/09 01:16:47;;;;;;;12.27;4.60;;;12.00;99.90;;;;;;5091719;28;20090;-88
2023/06/09 01:19:34;;;;;;;13.45;4.22;;;12.20;99.90;;;;;;5091495;28;20410;-88
2023/06/09 01:22:06;;;;;;;12.93;4.32;;;11.90;99.90;;;;;;5091214;28;20416;-88
2023/06/09 01:24:33;;;;;;;15.15;4.78;;;12.00;99.90;;;;;;5075122;28;20147;-89
2023/06/09 01:27:02;;;;;;;15.55;4.57;;;12.00;99.90;;;;;;5071546;28;20720;-88
2023/06/09 01:29:32;;;;;;;12.77;4.75;;;11.90;99.90;;;;;;5070752;28;20536;-89
2023/06/09 01:32:01;;;;;;;19.88;4.80;;;11.90;99.90;;;;;;5072687;28;20033;-89
2023/06/09 01:34:28;;;;;;;14.77;4.78;;;11.90;99.90;;;;;;5095127;28;20040;-88
2023/06/09 01:36:55;;;;;;;15.15;4.78;;;11.90;99.90;;;;;;5070853;28;20044;-88
2023/06/09 01:39:22;;;;;;;17.45;4.70;;;11.90;99.90;;;;;;5038690;28;20032;-88
2023/06/09 01:41:49;;;;;;;15.43;5.10;;;11.90;99.90;;;;;;5038133;28;20040;-88
2023/06/09 01:44:15;;;;;;;12.90;4.65;;;11.90;99.90;;;;;;5045934;28;20474;-88
2023/06/09 01:46:42;;;;;;;18.27;5.78;;;11.90;99.90;;;;;;5074750;28;20108;-89
2023/06/09 01:49:15;;;;;;;13.80;5.18;;;11.90;99.90;;;;;;5074377;28;20036;-88
2023/06/09 01:51:50;;;;;;;17.67;5.88;;;11.90;99.90;;;;;;5091008;28;20074;-88
2023/06/09 01:54:24;;;;;;;13.50;5.22;;;11.90;99.90;;;;;;5090464;28;20044;-87
2023/06/09 01:57:03;;;;;;;17.77;5.32;;;11.90;99.90;;;;;;5081702;28;20039;-88
2023/06/09 01:59:36;;;;;;;15.25;5.68;;;11.90;99.90;;;;;;5086845;28;20049;-88
2023/06/09 02:02:08;;;;;;;17.15;5.68;;;11.90;99.90;;;;;;5081376;28;20059;-88
2023/06/09 02:04:35;;;;;;;21.13;5.85;;;11.90;99.90;;;;;;5074035;28;20044;-88
2023/06/09 02:07:03;;;;;;;18.45;5.45;;;11.90;99.90;;;;;;5074150;28;20047;-88
2023/06/09 02:09:32;;;;;;;15.75;5.65;;;11.90;99.90;;;;;;5090151;28;20059;-89
2023/06/09 02:11:59;;;;;;;16.10;5.40;;;11.90;99.90;;;;;;5090641;28;20041;-89
2023/06/09 02:14:33;;;;;;;18.45;5.78;;;11.90;99.90;;;;;;5063328;28;20036;-88
2023/06/09 02:17:04;;;;;;;17.58;5.43;;;11.90;99.90;;;;;;5054598;28;20081;-88
2023/06/09 02:19:35;;;;;;;18.02;5.40;;;12.00;99.90;;;;;;5070184;28;20501;-88
2023/06/09 02:22:02;;;;;;;13.70;5.15;;;11.90;99.90;;;;;;5040065;28;20032;-88
2023/06/09 02:24:28;;;;;;;17.60;4.68;;;11.90;99.90;;;;;;5053607;28;20397;-89
2023/06/09 02:26:56;;;;;;;17.17;5.72;;;12.00;99.90;;;;;;5037745;28;20045;-88
2023/06/09 02:29:24;;;;;;;17.77;5.30;;;12.00;99.90;;;;;;5053936;28;20079;-88
2023/06/09 02:31:53;;;;;;;16.10;5.15;;;11.90;99.90;;;;;;5053949;28;20504;-88
2023/06/09 02:34:22;;;;;;;14.20;4.72;;;12.00;99.90;;;;;;5089293;28;20040;-88
2023/06/09 02:36:52;;;;;;;16.90;5.28;;;12.00;99.90;;;;;;5074989;28;20040;-88
2023/06/09 02:39:20;;;;;;;18.40;5.40;;;12.00;99.90;;;;;;5074313;28;20481;-88
2023/06/09 02:41:47;;;;;;;14.77;5.07;;;12.00;99.90;;;;;;5090279;28;20455;-88
2023/06/09 02:44:14;;;;;;;16.45;5.40;;;12.00;99.90;;;;;;5073603;28;20040;-88
2023/06/09 02:46:42;;;;;;;17.10;4.80;;;12.00;99.90;;;;;;5089971;28;20630;-88
2023/06/09 02:49:08;;;;;;;17.83;5.78;;;12.00;99.90;;;;;;5089994;28;20043;-89
2023/06/09 02:51:38;;;;;;;13.23;4.88;;;12.00;99.90;;;;;;5089918;28;20409;-89
2023/06/09 02:54:05;;;;;;;13.23;5.20;;;12.00;99.90;;;;;;5074593;28;20163;-88
2023/06/09 02:56:31;;;;;;;19.52;5.35;;;12.00;99.90;;;;;;5076943;28;20127;-88
2023/06/09 02:58:58;;;;;;;19.17;5.72;;;12.00;99.90;;;;;;5060776;28;20094;-88
2023/06/09 03:01:27;;;;;;;17.25;5.60;;;12.00;99.90;;;;;;5077086;28;20055;-88
2023/06/09 03:03:53;;;;;;;13.15;5.18;;;12.00;99.90;;;;;;5093325;28;20141;-87
2023/06/09 03:06:20;;;;;;;18.63;5.50;;;12.00;99.90;;;;;;5094249;28;20505;-88
2023/06/09 03:08:47;;;;;;;15.30;4.88;;;12.00;99.90;;;;;;5060742;28;20131;-88
2023/06/09 03:11:14;;;;;;;10.52;5.25;;;12.00;99.90;;;;;;5078411;28;20044;-88
2023/06/09 03:13:40;;;;;;;15.80;5.10;;;12.00;99.90;;;;;;5077480;28;20090;-88
2023/06/09 03:16:08;;;;;;;18.83;5.07;;;12.00;99.90;;;;;;5073419;28;20037;-88
2023/06/09 03:18:34;;;;;;;16.95;5.40;;;12.00;99.90;;;;;;5048698;28;20481;-89
2023/06/09 03:21:01;;;;;;;17.48;5.50;;;12.00;99.90;;;;;;5060657;28;20119;-88
2023/06/09 03:23:28;;;;;;;16.48;5.50;;;12.00;99.90;;;;;;5061078;28;20039;-89
2023/06/09 03:25:57;;;;;;;18.77;5.63;;;12.00;99.90;;;;;;5077912;28;20049;-88
2023/06/09 03:28:24;;;;;;;18.80;6.25;;;12.00;99.90;;;;;;5041266;28;20390;-88
2023/06/09 03:30:51;;;;;;;16.73;5.22;;;12.00;99.90;;;;;;5040597;28;20102;-88
2023/06/09 03:33:20;;;;;;;13.63;5.07;;;12.00;99.90;;;;;;5040418;28;20108;-88
2023/06/09 03:35:49;;;;;;;18.60;6.38;;;12.00;99.90;;;;;;5056981;28;20052;-88
2023/06/09 03:38:16;;;;;;;16.95;5.03;;;12.00;99.90;;;;;;5073585;28;20037;-88
2023/06/09 03:40:43;;;;;;;15.73;5.05;;;12.00;99.90;;;;;;5040060;28;20048;-88
2023/06/09 03:43:11;;;;;;;12.73;4.97;;;12.00;99.90;;;;;;5056858;28;20059;-88
2023/06/09 03:45:38;;;;;;;11.93;5.07;;;12.10;99.90;;;;;;5041322;28;20098;-87
2023/06/09 03:48:06;;;;;;;16.85;6.30;;;12.10;99.90;;;;;;5057307;28;20107;-88
2023/06/09 03:50:33;;;;;;;12.07;5.32;;;12.10;99.90;;;;;;5056790;28;20084;-88
2023/06/09 03:53:00;;;;;;;15.93;5.70;;;12.10;99.90;;;;;;5056247;28;20124;-88
2023/06/09 03:55:29;;;;;;;16.27;5.63;;;12.10;99.90;;;;;;5058100;28;20555;-87
2023/06/09 03:57:56;;;;;;;13.00;5.63;;;12.20;99.90;;;;;;5060499;28;20037;-89
2023/06/09 04:00:23;;;;;;;17.65;6.57;;;12.20;99.90;;;;;;5060080;28;20046;-88
2023/06/09 04:02:50;;;;;;;20.48;5.90;;;12.20;99.90;;;;;;5092810;28;20451;-89
2023/06/09 04:05:16;;;;;;;20.55;6.32;;;12.20;99.90;;;;;;5075867;28;20067;-88
2023/06/09 04:07:43;;;;;;;17.83;6.00;;;12.20;99.90;;;;;;5041179;28;20052;-87
2023/06/09 04:10:10;;;;;;;18.85;6.47;;;12.20;99.90;;;;;;5040029;28;20524;-88
2023/06/09 04:12:38;;;;;;;18.50;6.43;;;12.20;99.90;;;;;;5040268;28;20033;-87
2023/06/09 04:15:06;;;;;;;16.05;6.68;;;12.20;99.90;;;;;;5040770;28;20037;-88
2023/06/09 04:17:34;;;;;;;15.50;6.45;;;12.30;99.90;;;;;;5040163;28;20083;-89
2023/06/09 04:20:04;;;;;;;16.58;6.80;;;12.30;99.90;;;;;;5039920;28;20044;-88
2023/06/09 04:22:31;;;;;;;20.00;7.15;;;12.30;99.90;;;;;;5041608;28;20049;-88
2023/06/09 04:24:58;;;;;;;18.45;7.07;;;12.40;99.90;;;;;;5055952;28;20102;-88
2023/06/09 04:27:25;;;;;;;16.15;7.38;;;12.40;99.90;;;;;;5046226;28;20080;-88
2023/06/09 04:29:52;;;;;;;18.23;6.72;;;12.40;99.90;;;;;;5059175;28;20044;-88
2023/06/09 04:32:19;;;;;;;16.50;6.88;;;12.40;99.90;;;;;;5058986;28;20036;-88
2023/06/09 04:34:45;;;;;;;17.67;7.05;;;12.50;99.90;;;;;;5075734;28;20039;-87
2023/06/09 04:37:12;;;;;;;18.58;6.85;;;12.50;99.90;;;;;;5074707;28;20496;-88
2023/06/09 04:39:45;;;;;;;17.67;6.80;;;12.50;99.90;;;;;;5056493;28;20722;-88
2023/06/09 04:42:12;;;;;;;15.63;7.28;;;12.60;99.90;;;;;;5072355;28;20497;-88
2023/06/09 04:44:39;;;;;;;16.60;6.50;;;12.60;99.90;;;;;;5072451;28;20076;-88
2023/06/09 04:47:05;;;;;;;17.15;6.97;;;12.70;99.90;;;;;;5055621;28;20087;-88
2023/06/09 04:49:35;;;;;;;28.02;7.72;;;12.70;99.90;;;;;;5039625;28;20037;-88
2023/06/09 04:52:02;;;;;;;19.65;7.32;;;12.70;99.90;;;;;;5056280;28;20048;-88
2023/06/09 04:54:29;;;;;;;21.15;8.40;;;12.70;99.90;;;;;;5039797;28;20037;-88
2023/06/09 04:57:01;;;;;;;14.85;7.07;;;12.70;99.90;;;;;;5039117;28;20028;-87
2023/06/09 04:59:28;;;;;;;18.83;7.93;;;12.80;99.90;;;;;;5056627;28;20489;-88
2023/06/09 05:01:55;;;;;;;19.52;7.35;;;12.80;99.90;;;;;;5059184;28;20106;-88
2023/06/09 05:04:22;;;;;;;20.42;8.13;;;12.80;99.90;;;;;;5058970;28;20040;-88
2023/06/09 05:06:48;;;;;;;19.40;8.40;;;12.80;99.90;;;;;;5058193;28;20078;-88
2023/06/09 05:09:15;;;;;;;18.58;8.85;;;12.80;99.90;;;;;;5058718;28;20040;-88
2023/06/09 05:11:42;;;;;;;19.52;9.10;;;12.80;99.90;;;;;;5058934;28;20041;-88
2023/06/09 05:14:08;;;;;;;17.67;8.32;;;12.80;99.90;;;;;;5057994;28;20032;-88
2023/06/09 05:16:35;;;;;;;20.67;8.20;;;12.90;99.90;;;;;;5058734;28;20072;-88
2023/06/09 05:19:02;;;;;;;22.50;8.57;;;12.90;99.90;;;;;;5068328;28;20048;-88
2023/06/09 05:21:29;;;;;;;16.63;8.13;;;12.90;99.90;;;;;;5071677;28;20049;-88
2023/06/09 05:23:56;;;;;;;16.00;8.13;;;12.90;99.90;;;;;;5038474;28;20131;-87
2023/06/09 05:26:22;;;;;;;20.17;7.43;;;13.00;99.90;;;;;;5054926;28;20418;-88
2023/06/09 05:28:49;;;;;;;22.95;8.80;;;13.00;99.90;;;;;;5040269;28;20045;-87
2023/06/09 05:31:19;;;;;;;22.65;8.40;;;13.10;99.90;;;;;;5074632;28;20058;-89
2023/06/09 05:33:46;;;;;;;23.08;9.05;;;13.10;99.90;;;;;;5059349;28;20032;-88
2023/06/09 05:36:13;;;;;;;18.45;8.75;;;13.20;99.90;;;;;;5091090;28;20661;-88
2023/06/09 05:38:40;;;;;;;21.73;8.95;;;13.20;99.90;;;;;;5074595;28;20405;-88
2023/06/09 05:41:06;;;;;;;15.73;8.32;;;13.30;99.90;;;;;;5041465;28;20108;-88
2023/06/09 05:43:33;;;;;;;19.63;9.00;;;13.40;99.90;;;;;;5038315;28;20497;-88
2023/06/09 05:46:00;;;;;;;21.00;9.35;;;13.50;99.90;;;;;;5054147;28;20041;-88
2023/06/09 05:48:27;;;;;;;18.20;8.68;;;13.50;99.90;;;;;;5070927;28;20033;-88
2023/06/09 05:50:53;;;;;;;20.25;8.80;;;13.60;99.90;;;;;;5082384;28;20052;-88
2023/06/09 05:53:21;;;;;;;25.20;8.85;;;13.50;99.90;;;;;;5090763;28;20036;-88
2023/06/09 05:55:48;;;;;;;22.38;9.40;;;13.70;99.90;;;;;;5057799;28;20113;-88
2023/06/09 05:58:15;;;;;;;19.77;8.55;;;13.80;99.90;;;;;;5056911;28;20044;-87
2023/06/09 06:00:42;;;;;;;20.85;8.13;;;13.80;99.90;;;;;;5073577;28;20047;-87
2023/06/09 06:03:10;;;;;;;20.83;8.57;;;13.90;99.90;;;;;;5090080;28;20036;-88
2023/06/09 06:05:38;;;;;;;22.63;7.80;;;14.00;99.90;;;;;;5090702;28;20039;-88
2023/06/09 06:08:07;;;;;;;20.13;8.00;;;14.00;99.90;;;;;;5089984;28;20086;-88
2023/06/09 06:10:34;;;;;;;18.42;7.55;;;14.10;99.90;;;;;;5088918;28;20044;-88
2023/06/09 06:13:03;;;;;;;17.25;6.97;;;14.20;99.90;;;;;;5037539;28;20037;-88
2023/06/09 06:15:30;;;;;;;17.08;6.53;;;14.30;99.90;;;;;;5071219;28;20041;-88
2023/06/09 06:17:57;;;;;;;15.57;7.00;;;14.50;99.90;;;;;;5036965;28;20197;-87
2023/06/09 06:20:24;;;;;;;14.07;6.45;;;14.50;99.90;;;;;;5039729;28;20044;-87
2023/06/09 06:22:51;;;;;;;14.00;6.40;;;14.60;99.90;;;;;;5058204;28;20041;-87
2023/06/09 06:25:18;;;;;;;15.95;6.50;;;14.70;99.90;;;;;;5036888;28;20090;-89
2023/06/09 06:27:44;;;;;;;13.18;5.97;;;14.80;99.90;;;;;;5054032;28;20049;-88
2023/06/09 06:30:12;;;;;;;16.35;5.90;;;15.00;99.90;;;;;;5035864;28;20055;-88
2023/06/09 06:32:49;;;;;;;15.65;6.80;;;15.10;99.90;;;;;;5053581;28;20478;-88
2023/06/09 06:35:27;;;;;;;17.63;5.80;;;15.30;99.90;;;;;;5069713;28;20041;-88
2023/06/09 06:37:54;;;;;;;17.23;5.45;;;15.40;99.90;;;;;;5086412;28;20053;-88
2023/06/09 06:40:22;;;;;;;15.05;5.43;;;15.50;99.90;;;;;;5053092;28;20117;-88
2023/06/09 06:42:49;;;;;;;16.98;5.72;;;15.60;99.90;;;;;;5087907;28;20123;-88
2023/06/09 06:45:16;;;;;;;13.82;5.30;;;15.70;99.90;;;;;;5069410;28;20067;-88
2023/06/09 06:47:45;;;;;;;13.75;5.47;;;15.90;99.90;;;;;;5074322;28;21065;-88
2023/06/09 06:50:12;;;;;;;16.90;5.38;;;16.10;99.90;;;;;;5080795;28;20040;-88
2023/06/09 06:52:39;;;;;;;20.27;5.60;;;16.10;99.90;;;;;;5067586;28;20064;-89
2023/06/09 06:55:07;;;;;;;15.63;5.30;;;16.20;99.90;;;;;;5070897;28;20102;-89
2023/06/09 06:57:35;;;;;;;16.35;5.70;;;16.40;99.90;;;;;;5073408;28;20127;-89
2023/06/09 07:00:10;;;;;;;18.25;5.10;;;16.40;99.90;;;;;;5041753;28;20048;-89
2023/06/09 07:02:37;;;;;;;13.60;4.78;;;16.60;99.90;;;;;;5077375;28;20500;-89
2023/06/09 07:05:06;;;;;;;15.60;4.80;;;16.70;99.90;;;;;;5053246;28;20143;-88
2023/06/09 07:07:36;;;;;;;13.68;4.70;;;16.90;99.90;;;;;;5070089;28;20095;-89
2023/06/09 07:10:04;;;;;;;12.20;4.97;;;17.00;99.90;;;;;;5069792;28;20041;-89
2023/06/09 07:12:32;;;;;;;14.85;5.55;;;17.10;99.90;;;;;;5053677;28;20040;-89
2023/06/09 07:14:59;;;;;;;10.45;4.78;;;17.20;99.90;;;;;;5069752;28;20044;-86
2023/06/09 07:17:26;;;;;;;19.67;4.95;;;17.30;99.90;;;;;;5052435;28;20471;-87
2023/06/09 07:19:52;;;;;;;13.13;5.07;;;17.40;99.90;;;;;;5036249;28;20052;-87
2023/06/09 07:22:19;;;;;;;14.32;4.97;;;17.50;99.90;;;;;;5052937;28;20043;-87
2023/06/09 07:24:46;;;;;;;12.32;5.45;;;17.60;99.90;;;;;;5053211;28;20107;-88
2023/06/09 07:27:13;;;;;;;17.95;5.82;;;17.70;99.90;;;;;;5068704;28;20041;-86
2023/06/09 07:29:42;;;;;;;11.13;4.80;;;17.80;99.90;;;;;;5052435;28;20091;-83
2023/06/09 07:32:10;;;;;;;12.38;4.78;;;17.90;99.90;;;;;;5060214;28;20037;-85
2023/06/09 07:34:37;;;;;;;16.63;4.90;;;18.00;99.90;;;;;;5054956;28;20117;-85
2023/06/09 07:37:05;;;;;;;14.93;4.70;;;18.10;99.90;;;;;;5052489;28;20076;-82
2023/06/09 07:39:35;;;;;;;11.27;4.53;;;18.30;99.90;;;;;;5068161;28;20468;-83
2023/06/09 07:42:02;;;;;;;12.30;4.75;;;18.40;99.90;;;;;;5071885;28;20087;-83
2023/06/09 07:44:28;;;;;;;10.30;4.60;;;18.50;99.90;;;;;;5039107;28;20072;-83
2023/06/09 07:46:55;;;;;;;15.20;5.00;;;18.60;99.90;;;;;;5059022;28;20085;-86
2023/06/09 07:49:22;;;;;;;12.57;4.90;;;18.80;99.90;;;;;;5040293;28;20072;-85
2023/06/09 07:51:50;;;;;;;10.57;4.55;;;18.90;99.90;;;;;;5050234;28;20040;-86
2023/06/09 07:54:16;;;;;;;15.68;4.20;;;19.00;99.90;;;;;;5075404;28;20039;-87
2023/06/09 07:56:48;;;;;;;12.80;4.60;;;19.10;99.90;;;;;;5075525;28;20816;-85
2023/06/09 07:59:18;;;;;;;9.23;4.50;;;19.30;99.90;;;;;;5055575;28;20476;-85
2023/06/09 08:01:46;;;;;;;10.68;4.25;;;19.40;99.90;;;;;;5088013;28;20080;-78
2023/06/09 08:04:13;;;;;;;8.88;3.67;;;19.50;99.90;;;;;;5071073;28;20405;-81
2023/06/09 08:06:40;;;;;;;8.95;3.58;;;19.70;99.90;;;;;;5072187;28;20056;-80
2023/06/09 08:09:08;;;;;;;9.27;4.00;;;19.90;99.90;;;;;;5054991;28;20057;-79
2023/06/09 08:11:35;;;;;;;9.63;3.50;;;20.00;99.90;;;;;;5039195;28;20037;-81
2023/06/09 08:14:02;;;;;;;11.45;4.15;;;20.10;99.90;;;;;;5039023;28;20086;-81
2023/06/09 08:16:31;;;;;;;15.65;4.60;;;20.30;99.90;;;;;;5054601;28;20040;-81
2023/06/09 08:18:57;;;;;;;9.57;3.72;;;20.40;99.90;;;;;;5055538;28;20041;-82
2023/06/09 08:21:24;;;;;;;9.38;3.65;;;20.50;99.90;;;;;;5070996;28;20047;-82
2023/06/09 08:23:52;;;;;;;10.65;3.85;;;20.60;99.90;;;;;;5054801;28;20494;-81
2023/06/09 08:26:18;;;;;;;10.45;3.72;;;20.70;99.90;;;;;;5047364;28;20128;-81
2023/06/09 08:28:45;;;;;;;10.45;3.95;;;20.90;99.90;;;;;;5058145;28;20147;-81
2023/06/09 08:31:12;;;;;;;12.50;4.03;;;21.00;99.90;;;;;;5074907;28;20037;-80
2023/06/09 08:33:39;;;;;;;9.45;3.95;;;21.10;99.90;;;;;;5091387;28;20036;-80
2023/06/09 08:36:07;;;;;;;16.58;3.60;;;21.30;99.90;;;;;;5074971;28;20075;-80
2023/06/09 08:38:35;;;;;;;10.40;3.97;;;21.40;99.90;;;;;;5074514;28;20044;-79
2023/06/09 08:41:09;;;;;;;9.70;3.80;;;21.50;99.90;;;;;;5079465;28;20045;-80
2023/06/09 08:43:36;;;;;;;13.27;3.70;;;21.70;99.90;;;;;;5070353;28;20041;-80
2023/06/09 08:46:05;;;;;;;14.27;4.05;;;21.70;99.90;;;;;;5069138;28;20040;-80
2023/06/09 08:48:34;;;;;;;7.93;3.95;;;21.80;99.90;;;;;;5085566;28;20075;-81
2023/06/09 08:51:02;;;;;;;10.18;3.65;;;22.00;99.90;;;;;;5053912;28;20048;-81
2023/06/09 08:53:30;;;;;;;9.25;3.30;;;22.10;99.90;;;;;;5085949;28;20102;-81
2023/06/09 08:55:59;;;;;;;8.32;3.47;;;22.20;99.90;;;;;;5070465;28;20799;-79
2023/06/09 08:58:27;;;;;;;11.82;3.58;;;22.30;99.90;;;;;;5085367;28;20040;-80
2023/06/09 09:00:54;;;;;;;8.23;3.42;;;22.30;99.90;;;;;;5090750;28;20075;-80
2023/06/09 09:03:22;;;;;;;8.77;3.80;;;22.50;99.90;;;;;;5090229;28;20075;-81
2023/06/09 09:05:49;;;;;;;8.98;3.42;;;22.60;99.90;;;;;;5073110;28;20123;-79
2023/06/09 09:08:16;;;;;;;6.93;3.30;;;22.70;99.90;;;;;;5061938;28;20124;-79
2023/06/09 09:10:45;;;;;;;7.57;3.10;;;22.90;99.90;;;;;;5053323;28;20083;-79
2023/06/09 09:13:12;;;;;;;8.23;3.50;;;23.00;99.90;;;;;;5053308;28;20045;-81
2023/06/09 09:15:47;;;;;;;5.30;2.92;;;23.20;99.90;;;;;;5069994;28;20037;-81
2023/06/09 09:18:16;;;;;;;9.20;3.33;;;23.30;99.90;;;;;;5061790;28;20717;-82
2023/06/09 09:20:43;;;;;;;7.60;2.83;;;23.40;99.90;;;;;;5073160;28;20036;-81
2023/06/09 09:23:10;;;;;;;6.38;3.47;;;23.50;99.90;;;;;;5089894;28;20737;-81
2023/06/09 09:25:37;;;;;;;10.50;4.20;;;23.60;99.90;;;;;;5089396;28;20113;-81
2023/06/09 09:28:13;;;;;;;7.45;3.28;;;23.70;99.90;;;;;;5073172;28;20585;-80
2023/06/09 09:30:47;;;;;;;8.40;3.20;;;23.80;99.90;;;;;;5073277;28;20575;-80
2023/06/09 09:33:20;;;;;;;7.57;3.40;;;23.90;99.90;;;;;;5074201;28;20101;-81
2023/06/09 09:35:49;;;;;;;6.57;3.25;;;24.10;99.90;;;;;;5089392;28;20093;-81
2023/06/09 09:38:21;;;;;;;8.13;3.58;;;24.30;99.90;;;;;;5104944;28;20036;-81
2023/06/09 09:40:51;;;;;;;8.85;3.33;;;24.40;99.90;;;;;;5069252;28;20041;-81
2023/06/09 09:43:19;;;;;;;5.82;2.97;;;24.50;99.90;;;;;;5069333;28;20048;-80
2023/06/09 09:45:47;;;;;;;6.30;2.78;;;24.50;99.90;;;;;;5052458;28;20045;-80
2023/06/09 09:48:16;;;;;;;7.93;3.65;;;24.60;99.90;;;;;;5085936;28;20075;-81
2023/06/09 09:50:44;;;;;;;7.28;3.10;;;24.80;99.90;;;;;;5086715;28;20041;-80
2023/06/09 09:53:12;;;;;;;8.02;3.25;;;24.90;99.90;;;;;;5091701;28;20037;-81
2023/06/09 09:55:42;;;;;;;8.85;3.55;;;25.00;99.90;;;;;;5089407;28;20036;-85
2023/06/09 09:58:10;;;;;;;7.00;2.97;;;25.10;99.50;;;;;;5089980;28;20040;-84
2023/06/09 10:00:38;;;;;;;7.45;2.83;;;25.20;99.90;;;;;;5067617;28;20068;-82
2023/06/09 10:03:13;;;;;;;7.53;3.17;;;25.30;99.90;;;;;;5089581;28;20567;-82
2023/06/09 10:05:46;;;;;;;9.05;3.22;;;25.40;99.90;;;;;;5068834;28;20135;-82
2023/06/09 10:08:28;;;;;;;9.40;3.22;;;25.50;99.90;;;;;;5069153;28;20505;-82
2023/06/09 10:11:02;;;;;;;6.68;3.17;;;25.70;99.10;;;;;;5088750;28;20040;-82
2023/06/09 10:13:29;;;;;;;7.32;3.28;;;25.70;99.60;;;;;;5053361;28;20040;-82
2023/06/09 10:15:58;;;;;;;7.15;3.30;;;25.70;99.50;;;;;;5082379;28;20040;-81
2023/06/09 10:18:25;;;;;;;7.70;3.00;;;25.90;99.30;;;;;;5086617;28;20046;-81
2023/06/09 10:20:54;;;;;;;17.55;3.28;;;26.00;99.20;;;;;;5095860;28;20068;-80
2023/06/09 10:23:21;;;;;;;9.55;3.50;;;26.10;98.20;;;;;;5071485;28;20127;-80
2023/06/09 10:25:50;;;;;;;9.15;3.45;;;26.10;98.70;;;;;;5071178;28;20101;-79
2023/06/09 10:28:19;;;;;;;6.13;3.05;;;26.10;97.10;;;;;;5087366;28;20075;-81
2023/06/09 10:30:50;;;;;;;5.85;3.13;;;26.10;98.10;;;;;;5046012;28;20374;-81
2023/06/09 10:33:26;;;;;;;6.85;3.40;;;26.20;96.80;;;;;;5062418;28;20033;-80
2023/06/09 10:35:57;;;;;;;13.73;3.80;;;26.20;95.50;;;;;;5068589;28;20452;-80
2023/06/09 10:38:45;;;;;;;10.38;3.42;;;26.30;96.20;;;;;;5069399;28;20052;-80
2023/06/09 10:41:15;;;;;;;6.38;3.40;;;26.40;96.00;;;;;;5069234;28;20048;-80
2023/06/09 10:44:10;;;;;;;7.18;3.22;;;26.50;97.20;;;;;;5077529;28;20037;-80
2023/06/09 10:46:42;;;;;;;8.55;3.35;;;26.60;96.20;;;;;;5105719;28;20041;-80
2023/06/09 10:49:36;;;;;;;6.75;3.40;;;26.60;96.40;;;;;;5088786;28;20064;-81
2023/06/09 10:52:04;;;;;;;6.57;3.22;;;26.70;94.70;;;;;;5088489;28;20618;-81
2023/06/09 10:54:32;;;;;;;7.68;3.38;;;26.70;96.30;;;;;;5085043;28;20075;-81
2023/06/09 10:57:02;;;;;;;7.35;3.25;;;26.80;96.10;;;;;;5074776;28;20174;-81
2023/06/09 10:59:30;;;;;;;11.63;3.30;;;26.90;96.10;;;;;;5088632;28;20036;-80
2023/06/09 11:02:02;;;;;;;6.38;3.40;;;27.00;95.80;;;;;;5084529;28;20487;-81
2023/06/09 11:04:43;;;;;;;8.65;3.25;;;27.10;94.80;;;;;;5083507;28;20051;-80
2023/06/09 11:07:14;;;;;;;9.27;3.80;;;27.20;94.50;;;;;;5088609;28;20545;-81
2023/06/09 11:10:24;;;;;;;6.68;3.10;;;27.20;95.30;;;;;;5104650;28;20091;-81
2023/06/09 11:13:00;;;;;;;8.43;3.47;;;27.30;94.10;;;;;;5086950;28;20060;-81
2023/06/09 11:15:54;;;;;;;5.18;3.03;;;27.50;95.30;;;;;;5054487;28;20033;-81
2023/06/09 11:18:21;;;;;;;7.28;3.20;;;27.40;93.60;;;;;;5071931;28;20072;-81
2023/06/09 11:21:07;;;;;;;6.32;3.20;;;27.50;94.70;;;;;;5071898;28;20095;-81
2023/06/09 11:23:53;;;;;;;8.07;3.20;;;27.60;94.40;;;;;;5076158;28;20041;-81
2023/06/09 11:26:22;;;;;;;6.88;3.25;;;27.60;93.30;;;;;;5091742;28;20052;-81
2023/06/09 11:28:49;;;;;;;5.32;3.05;;;27.70;94.50;;;;;;5075410;28;20505;-81
2023/06/09 11:31:16;;;;;;;7.78;3.28;;;27.80;94.20;;;;;;5075370;28;20041;-81
2023/06/09 11:33:47;;;;;;;7.38;3.20;;;27.80;94.50;;;;;;5091159;28;20032;-82
2023/06/09 11:36:20;;;;;;;5.47;3.25;;;27.80;94.20;;;;;;5069446;28;20045;-81
2023/06/09 11:38:47;;;;;;;8.00;3.80;;;27.70;93.80;;;;;;5071580;28;20044;-81
2023/06/09 11:41:18;;;;;;;8.00;3.28;;;27.70;94.00;;;;;;5071858;28;20048;-81
2023/06/09 11:43:49;;;;;;;6.80;3.10;;;27.80;94.10;;;;;;5070933;28;20496;-78
2023/06/09 11:46:17;;;;;;;8.63;3.42;;;27.90;94.10;;;;;;5086328;28;20471;-82
2023/06/09 11:49:01;;;;;;;7.97;3.63;;;27.80;93.80;;;;;;5054633;28;20520;-81
2023/06/09 11:51:29;;;;;;;9.77;3.65;;;27.90;93.50;;;;;;5088281;28;20041;-81
2023/06/09 11:53:55;;;;;;;7.45;3.20;;;27.90;93.90;;;;;;5087813;28;20041;-81
2023/06/09 11:56:22;;;;;;;8.55;3.88;;;27.90;93.70;;;;;;5087979;28;20374;-82
2023/06/09 11:58:53;;;;;;;6.57;3.67;;;27.90;93.90;;;;;;5091132;28;20040;-81
2023/06/09 12:01:28;;;;;;;7.78;3.72;;;28.00;93.40;;;;;;5108648;28;20493;-82
2023/06/09 12:03:55;;;;;;;7.50;3.42;;;28.00;93.60;;;;;;5087418;28;20112;-81
2023/06/09 12:06:22;;;;;;;7.07;3.60;;;28.00;93.50;;;;;;5055056;28;20120;-81
2023/06/09 12:08:48;;;;;;;6.53;3.40;;;28.10;93.90;;;;;;5087247;28;20033;-82
2023/06/09 12:11:16;;;;;;;8.50;3.80;;;28.10;93.60;;;;;;5054644;28;20048;-82
2023/06/09 12:13:47;;;;;;;8.95;3.78;;;28.10;93.20;;;;;;5071387;28;20044;-82
2023/06/09 12:16:14;;;;;;;6.38;3.90;;;28.00;92.50;;;;;;5071226;28;20049;-81
2023/06/09 12:18:41;;;;;;;8.48;3.85;;;28.00;93.20;;;;;;5070539;28;20055;-81
2023/06/09 12:21:09;;;;;;;8.23;3.83;;;28.00;93.10;;;;;;5038220;28;20041;-81
2023/06/09 12:23:36;;;;;;;6.78;3.35;;;28.00;92.70;;;;;;5054306;28;20036;-82
2023/06/09 12:26:07;;;;;;;8.93;3.28;;;28.00;92.90;;;;;;5053320;28;20102;-82
2023/06/09 12:28:34;;;;;;;6.38;3.30;;;28.10;92.50;;;;;;5086790;28;20051;-81
2023/06/09 12:31:11;;;;;;;7.63;3.53;;;28.20;92.70;;;;;;5037570;28;20079;-82
2023/06/09 12:33:45;;;;;;;7.75;3.78;;;28.20;92.00;;;;;;5087520;28;20084;-81
2023/06/09 12:36:11;;;;;;;7.22;3.40;;;28.20;92.50;;;;;;5071663;28;20037;-81
2023/06/09 12:38:40;;;;;;;6.80;3.72;;;28.20;92.80;;;;;;5057717;28;20032;-82
2023/06/09 12:41:12;;;;;;;7.95;4.40;;;28.30;91.90;;;;;;5090493;28;20040;-81
2023/06/09 12:43:55;;;;;;;6.70;3.60;;;28.30;92.50;;;;;;5087162;28;20037;-81
2023/06/09 12:46:35;;;;;;;7.32;3.85;;;28.20;92.00;;;;;;5070259;28;20059;-80
2023/06/09 12:49:09;;;;;;;8.00;3.78;;;28.30;91.90;;;;;;5086755;28;20040;-81
2023/06/09 12:51:37;;;;;;;;;;;28.30;92.10;;;;;;5071090;28;20040;-81